Overview Statistics Trail Chart Weather Telemetry Raw packets
 

This is the latest recevied weather packets stored in our database for station/object E22ZMG-2. If no packets are shown the sender has not sent any weather packets the latest 10 day(s).

<< 34 35 36 37 38 39 40 >>
Time Temp. Humidity Pressure Rain* Wind** Luminosity Snow
1776995287 29.44° C 60% 926 hPa - - 0 W/m² -
1776994664 29.44° C 61% 926 hPa - - 0 W/m² -
1776994040 29.44° C 62% 926 hPa - - 0 W/m² -
1776993415 28.89° C 64% 926 hPa - - 0 W/m² -
1776992791 28.33° C 67% 926 hPa - - 0 W/m² -
1776992167 27.78° C 69% 926 hPa - - 0 W/m² -
1776991543 27.78° C 69% 926 hPa - - 0 W/m² -
1776990919 27.22° C 71% 926 hPa - - 0 W/m² -
1776990294 25.56° C 75% 926 hPa - - 0 W/m² -
1776929359 32.22° C 47% 923 hPa - - 0 W/m² -
1776928735 35.56° C 40% 921 hPa - - 0 W/m² -
1776928111 35° C 40% 921 hPa - - 0 W/m² -
1776927487 35.56° C 41% 922 hPa - - 0 W/m² -
1776926864 35.56° C 41% 922 hPa - - 0 W/m² -
1776926239 35.56° C 41% 922 hPa - - 0 W/m² -
1776925615 35.56° C 41% 922 hPa - - 0 W/m² -
1776924990 35.56° C 40% 923 hPa - - 0 W/m² -
1776924366 35.56° C 41% 923 hPa - - 0 W/m² -
1776923741 35° C 41% 923 hPa - - 0 W/m² -
1776923116 35° C 42% 923 hPa - - 0 W/m² -
1776922492 35° C 42% 923 hPa - - 0 W/m² -
1776921868 35° C 41% 923 hPa - - 0 W/m² -
1776921243 35° C 42% 923 hPa - - 0 W/m² -
1776920619 35° C 42% 924 hPa - - 0 W/m² -
1776919995 34.44° C 43% 924 hPa - - 0 W/m² -

* Rain since midnight (hover to see other rain measurements)
** Current wind speed in m/s (hover to see current wind gust speed)